sensor_id;sensor_type;location;lat;lon;timestamp;pressure;altitude;pressure_sealevel;temperature;humidity
25610;BME280;13479;49.044;8.716;2023-03-04T05:00:58;99743.75;;;-2.98;78.88
25610;BME280;13479;49.044;8.716;2023-03-04T05:03:24;99743.91;;;-3.07;79.41
25610;BME280;13479;49.044;8.716;2023-03-04T05:05:49;99748.31;;;-3.11;79.28
25610;BME280;13479;49.044;8.716;2023-03-04T05:08:14;99758.03;;;-3.21;79.06
25610;BME280;13479;49.044;8.716;2023-03-04T05:10:39;99763.34;;;-3.27;78.47
25610;BME280;13479;49.044;8.716;2023-03-04T05:13:05;99773.81;;;-3.32;78.47
25610;BME280;13479;49.044;8.716;2023-03-04T05:15:30;99777.31;;;-3.34;79.04
25610;BME280;13479;49.044;8.716;2023-03-04T05:17:55;99787.75;;;-3.37;78.72
25610;BME280;13479;49.044;8.716;2023-03-04T05:20:21;99786.03;;;-3.38;78.83
25610;BME280;13479;49.044;8.716;2023-03-04T05:22:47;99788.53;;;-3.34;78.29
25610;BME280;13479;49.044;8.716;2023-03-04T05:25:13;99791.22;;;-3.38;78.45
25610;BME280;13479;49.044;8.716;2023-03-04T05:27:38;99803.16;;;-3.28;77.92
25610;BME280;13479;49.044;8.716;2023-03-04T05:30:04;99811.84;;;-3.29;78.34
25610;BME280;13479;49.044;8.716;2023-03-04T05:32:29;99815.31;;;-3.30;78.18
25610;BME280;13479;49.044;8.716;2023-03-04T05:34:54;99820.44;;;-3.24;77.91
25610;BME280;13479;49.044;8.716;2023-03-04T05:37:20;99823.03;;;-3.24;77.95
25610;BME280;13479;49.044;8.716;2023-03-04T05:39:45;99827.81;;;-3.01;77.68
25610;BME280;13479;49.044;8.716;2023-03-04T05:42:10;99854.78;;;-3.10;77.26
25610;BME280;13479;49.044;8.716;2023-03-04T05:44:35;99859.38;;;-3.24;77.25
25610;BME280;13479;49.044;8.716;2023-03-04T05:47:00;99853.06;;;-3.09;77.74
25610;BME280;13479;49.044;8.716;2023-03-04T05:49:26;99869.41;;;-3.04;76.97
25610;BME280;13479;49.044;8.716;2023-03-04T05:51:51;99896.44;;;-3.13;77.29
25610;BME280;13479;49.044;8.716;2023-03-04T05:54:16;99894.94;;;-3.29;76.92
25610;BME280;13479;49.044;8.716;2023-03-04T05:56:42;99874.31;;;-3.38;77.52
25610;BME280;13479;49.044;8.716;2023-03-04T05:59:07;99839.63;;;-3.36;77.81
25610;BME280;13479;49.044;8.716;2023-03-04T06:01:32;99820.31;;;-3.18;78.07
25610;BME280;13479;49.044;8.716;2023-03-04T06:03:57;99807.19;;;-3.10;78.11
25610;BME280;13479;49.044;8.716;2023-03-04T06:06:23;99797.50;;;-3.00;78.18
25610;BME280;13479;49.044;8.716;2023-03-04T06:08:48;99777.25;;;-2.83;78.60
25610;BME280;13479;49.044;8.716;2023-03-04T06:11:13;99765.97;;;-2.82;78.48
25610;BME280;13479;49.044;8.716;2023-03-04T06:13:38;99754.63;;;-2.77;79.15
25610;BME280;13479;49.044;8.716;2023-03-04T06:16:04;99744.56;;;-2.95;78.83
25610;BME280;13479;49.044;8.716;2023-03-04T06:18:30;99721.88;;;-2.86;79.85
25610;BME280;13479;49.044;8.716;2023-03-04T06:20:59;99713.75;;;-2.69;80.08
25610;BME280;13479;49.044;8.716;2023-03-04T06:23:26;99724.81;;;-2.61;80.11
25610;BME280;13479;49.044;8.716;2023-03-04T06:25:53;99728.94;;;-2.51;80.22
25610;BME280;13479;49.044;8.716;2023-03-04T06:28:18;99741.63;;;-2.35;81.12
25610;BME280;13479;49.044;8.716;2023-03-04T06:30:44;99765.59;;;-2.21;80.96
25610;BME280;13479;49.044;8.716;2023-03-04T06:33:09;99779.13;;;-2.05;81.48
25610;BME280;13479;49.044;8.716;2023-03-04T06:35:34;99800.47;;;-1.89;81.24
25610;BME280;13479;49.044;8.716;2023-03-04T06:38:00;99808.72;;;-1.71;81.43
25610;BME280;13479;49.044;8.716;2023-03-04T06:40:25;99817.03;;;-1.53;81.57
25610;BME280;13479;49.044;8.716;2023-03-04T06:42:50;99833.16;;;-1.37;81.49
25610;BME280;13479;49.044;8.716;2023-03-04T06:45:15;99858.56;;;-1.11;81.37
25610;BME280;13479;49.044;8.716;2023-03-04T06:47:41;99867.78;;;-0.98;81.13
25610;BME280;13479;49.044;8.716;2023-03-04T06:50:07;99891.91;;;-0.89;80.78
25610;BME280;13479;49.044;8.716;2023-03-04T06:52:33;99903.56;;;-0.70;80.61
25610;BME280;13479;49.044;8.716;2023-03-04T06:54:58;99917.28;;;-0.62;80.53
25610;BME280;13479;49.044;8.716;2023-03-04T06:57:23;99922.16;;;-0.49;80.13
25610;BME280;13479;49.044;8.716;2023-03-04T06:59:49;99936.66;;;-0.37;80.36
25610;BME280;13479;49.044;8.716;2023-03-04T07:02:14;99945.91;;;-0.25;80.21
25610;BME280;13479;49.044;8.716;2023-03-04T07:04:39;99947.34;;;-0.13;79.90
25610;BME280;13479;49.044;8.716;2023-03-04T07:07:04;99950.38;;;0.03;79.48
25610;BME280;13479;49.044;8.716;2023-03-04T07:09:30;99960.50;;;0.15;78.91
25610;BME280;13479;49.044;8.716;2023-03-04T07:11:55;99989.84;;;0.23;78.76
25610;BME280;13479;49.044;8.716;2023-03-04T07:14:21;99993.09;;;0.32;77.94
25610;BME280;13479;49.044;8.716;2023-03-04T07:16:46;100000.47;;;0.49;77.68
25610;BME280;13479;49.044;8.716;2023-03-04T07:19:11;100056.28;;;0.76;75.03
25610;BME280;13479;49.044;8.716;2023-03-04T07:21:37;100031.16;;;0.72;74.42
25610;BME280;13479;49.044;8.716;2023-03-04T07:24:02;100021.25;;;0.83;73.69
25610;BME280;13479;49.044;8.716;2023-03-04T07:26:27;99983.47;;;0.94;73.73
25610;BME280;13479;49.044;8.716;2023-03-04T07:28:53;99982.56;;;0.95;73.10
25610;BME280;13479;49.044;8.716;2023-03-04T07:31:22;99941.84;;;1.14;73.04
25610;BME280;13479;49.044;8.716;2023-03-04T07:33:48;99969.13;;;1.59;71.91
25610;BME280;13479;49.044;8.716;2023-03-04T07:36:14;99963.22;;;1.54;72.13
25610;BME280;13479;49.044;8.716;2023-03-04T07:38:44;99928.63;;;1.69;71.91
25610;BME280;13479;49.044;8.716;2023-03-04T07:41:09;99901.06;;;1.84;71.93
25610;BME280;13479;49.044;8.716;2023-03-04T07:43:34;99902.75;;;2.11;71.98
25610;BME280;13479;49.044;8.716;2023-03-04T07:46:00;99942.06;;;2.33;70.29
25610;BME280;13479;49.044;8.716;2023-03-04T07:48:26;99959.41;;;2.37;70.14
25610;BME280;13479;49.044;8.716;2023-03-04T07:51:07;99926.69;;;2.47;69.99
25610;BME280;13479;49.044;8.716;2023-03-04T07:53:33;99908.06;;;2.55;70.06
25610;BME280;13479;49.044;8.716;2023-03-04T07:55:58;99902.19;;;2.71;70.05
25610;BME280;13479;49.044;8.716;2023-03-04T07:58:24;99900.88;;;2.83;69.63
25610;BME280;13479;49.044;8.716;2023-03-04T08:00:49;99896.16;;;2.91;69.78
25610;BME280;13479;49.044;8.716;2023-03-04T08:03:14;99885.84;;;3.08;69.50
25610;BME280;13479;49.044;8.716;2023-03-04T08:05:40;99896.47;;;3.26;68.85
25610;BME280;13479;49.044;8.716;2023-03-04T08:08:05;99917.16;;;3.34;68.32
25610;BME280;13479;49.044;8.716;2023-03-04T08:10:30;99928.09;;;3.44;67.32
25610;BME280;13479;49.044;8.716;2023-03-04T08:12:55;99890.25;;;3.49;67.30
25610;BME280;13479;49.044;8.716;2023-03-04T08:15:21;99891.56;;;3.60;66.91
25610;BME280;13479;49.044;8.716;2023-03-04T08:17:46;99877.13;;;3.70;66.30
25610;BME280;13479;49.044;8.716;2023-03-04T08:20:11;99874.28;;;3.75;66.19
25610;BME280;13479;49.044;8.716;2023-03-04T08:22:37;99858.56;;;3.94;65.54
25610;BME280;13479;49.044;8.716;2023-03-04T08:25:02;99845.59;;;3.89;65.57
25610;BME280;13479;49.044;8.716;2023-03-04T08:27:27;99858.97;;;4.04;64.80
25610;BME280;13479;49.044;8.716;2023-03-04T08:29:52;99838.53;;;4.10;65.05
25610;BME280;13479;49.044;8.716;2023-03-04T08:32:18;99830.00;;;4.24;64.67
25610;BME280;13479;49.044;8.716;2023-03-04T08:34:43;99831.22;;;4.36;64.30
25610;BME280;13479;49.044;8.716;2023-03-04T08:37:09;99817.06;;;4.39;64.83
25610;BME280;13479;49.044;8.716;2023-03-04T08:39:34;99806.22;;;4.45;64.66
25610;BME280;13479;49.044;8.716;2023-03-04T08:42:00;99789.72;;;4.60;64.75
25610;BME280;13479;49.044;8.716;2023-03-04T08:44:26;99792.19;;;4.81;64.11
25610;BME280;13479;49.044;8.716;2023-03-04T08:46:51;99817.84;;;4.95;63.52
25610;BME280;13479;49.044;8.716;2023-03-04T08:49:16;99806.75;;;5.06;63.31
25610;BME280;13479;49.044;8.716;2023-03-04T08:51:42;99817.59;;;5.17;62.45
25610;BME280;13479;49.044;8.716;2023-03-04T08:54:09;99792.84;;;5.21;61.95
25610;BME280;13479;49.044;8.716;2023-03-04T08:56:34;99817.34;;;5.39;60.57
25610;BME280;13479;49.044;8.716;2023-03-04T08:58:59;99794.16;;;5.46;60.41
25610;BME280;13479;49.044;8.716;2023-03-04T09:01:25;99772.78;;;5.52;60.77
25610;BME280;13479;49.044;8.716;2023-03-04T09:03:50;99732.25;;;5.71;62.15
25610;BME280;13479;49.044;8.716;2023-03-04T09:06:16;99741.56;;;5.78;61.40
25610;BME280;13479;49.044;8.716;2023-03-04T09:08:42;99774.63;;;5.84;60.30
25610;BME280;13479;49.044;8.716;2023-03-04T09:11:08;99776.03;;;6.07;59.80
25610;BME280;13479;49.044;8.716;2023-03-04T09:13:34;99768.03;;;6.25;59.83
25610;BME280;13479;49.044;8.716;2023-03-04T09:16:00;99760.50;;;6.49;59.43
25610;BME280;13479;49.044;8.716;2023-03-04T09:18:26;99764.44;;;6.72;58.14
25610;BME280;13479;49.044;8.716;2023-03-04T09:20:51;99781.69;;;7.08;56.89
25610;BME280;13479;49.044;8.716;2023-03-04T09:23:17;99764.81;;;7.11;56.38
25610;BME280;13479;49.044;8.716;2023-03-04T09:25:44;99753.59;;;7.07;56.25
25610;BME280;13479;49.044;8.716;2023-03-04T09:28:11;99752.19;;;7.16;55.92
25610;BME280;13479;49.044;8.716;2023-03-04T09:30:36;99756.59;;;7.16;55.79
25610;BME280;13479;49.044;8.716;2023-03-04T09:33:01;99750.50;;;7.15;56.01
25610;BME280;13479;49.044;8.716;2023-03-04T09:35:27;99742.88;;;7.25;55.78
25610;BME280;13479;49.044;8.716;2023-03-04T09:37:54;99738.63;;;7.37;55.80
25610;BME280;13479;49.044;8.716;2023-03-04T09:40:22;99758.13;;;7.49;55.20
25610;BME280;13479;49.044;8.716;2023-03-04T09:43:11;99771.28;;;7.50;54.06
25610;BME280;13479;49.044;8.716;2023-03-04T09:45:47;99754.19;;;7.56;53.69
25610;BME280;13479;49.044;8.716;2023-03-04T09:48:16;99747.09;;;7.71;53.54
25610;BME280;13479;49.044;8.716;2023-03-04T09:53:48;99766.25;;;7.89;52.33
25610;BME280;13479;49.044;8.716;2023-03-04T09:56:18;99767.53;;;7.96;51.24
25610;BME280;13479;49.044;8.716;2023-03-04T09:58:59;99774.53;;;7.97;51.32
25610;BME280;13479;49.044;8.716;2023-03-04T10:01:41;99769.53;;;7.93;50.98
25610;BME280;13479;49.044;8.716;2023-03-04T10:04:13;99757.25;;;7.92;51.14
25610;BME280;13479;49.044;8.716;2023-03-04T10:06:41;99768.41;;;7.97;50.72
25610;BME280;13479;49.044;8.716;2023-03-04T10:09:16;99771.41;;;8.05;50.91
25610;BME280;13479;49.044;8.716;2023-03-04T10:11:44;99765.28;;;8.04;50.25
25610;BME280;13479;49.044;8.716;2023-03-04T10:14:15;99773.56;;;8.13;50.19
25610;BME280;13479;49.044;8.716;2023-03-04T10:16:48;99765.78;;;8.24;50.10
25610;BME280;13479;49.044;8.716;2023-03-04T10:21:44;99771.72;;;8.28;49.80
25610;BME280;13479;49.044;8.716;2023-03-04T10:24:15;99767.22;;;8.15;50.07
25610;BME280;13479;49.044;8.716;2023-03-04T10:26:45;99766.28;;;8.02;49.95
25610;BME280;13479;49.044;8.716;2023-03-04T10:29:16;99740.69;;;7.75;50.70
25610;BME280;13479;49.044;8.716;2023-03-04T10:31:43;99736.06;;;7.64;50.99
25610;BME280;13479;49.044;8.716;2023-03-04T10:34:11;99712.19;;;7.51;50.50
25610;BME280;13479;49.044;8.716;2023-03-04T10:36:52;99718.22;;;7.24;51.34
25610;BME280;13479;49.044;8.716;2023-03-04T10:39:46;99683.69;;;6.99;52.10
25610;BME280;13479;49.044;8.716;2023-03-04T10:44:51;99588.00;;;6.52;53.42
25610;BME280;13479;49.044;8.716;2023-03-04T10:47:16;99560.09;;;6.47;53.11
25610;BME280;13479;49.044;8.716;2023-03-04T10:49:50;99546.91;;;6.33;54.22
25610;BME280;13479;49.044;8.716;2023-03-04T10:52:27;99531.66;;;6.24;54.19
25610;BME280;13479;49.044;8.716;2023-03-04T10:54:56;99516.00;;;6.21;54.70
25610;BME280;13479;49.044;8.716;2023-03-04T10:57:33;99525.25;;;6.13;54.58
25610;BME280;13479;49.044;8.716;2023-03-04T11:00:22;99532.38;;;6.11;54.10
25610;BME280;13479;49.044;8.716;2023-03-04T11:02:46;99526.25;;;6.11;54.37
25610;BME280;13479;49.044;8.716;2023-03-04T11:05:23;99518.06;;;6.15;54.30
25610;BME280;13479;49.044;8.716;2023-03-04T11:07:49;99533.66;;;6.04;54.20
25610;BME280;13479;49.044;8.716;2023-03-04T11:10:19;99543.88;;;6.10;53.75
25610;BME280;13479;49.044;8.716;2023-03-04T11:15:23;99622.28;;;6.07;52.72
25610;BME280;13479;49.044;8.716;2023-03-04T11:17:56;99629.06;;;5.95;53.23
25610;BME280;13479;49.044;8.716;2023-03-04T11:20:35;99626.97;;;6.01;52.90
25610;BME280;13479;49.044;8.716;2023-03-04T11:23:16;99592.59;;;6.03;53.84
25610;BME280;13479;49.044;8.716;2023-03-04T11:26:09;99580.09;;;6.07;53.43
25610;BME280;13479;49.044;8.716;2023-03-04T11:28:51;99571.00;;;6.27;53.61
25610;BME280;13479;49.044;8.716;2023-03-04T11:37:00;99643.59;;;6.63;52.14
25610;BME280;13479;49.044;8.716;2023-03-04T11:39:36;99703.66;;;6.74;51.41
25610;BME280;13479;49.044;8.716;2023-03-04T11:42:27;99698.84;;;6.66;51.64
25610;BME280;13479;49.044;8.716;2023-03-04T11:44:55;99701.09;;;6.58;52.48
25610;BME280;13479;49.044;8.716;2023-03-04T11:47:48;99701.66;;;6.63;51.59
25610;BME280;13479;49.044;8.716;2023-03-04T11:50:34;99692.53;;;6.69;51.52
25610;BME280;13479;49.044;8.716;2023-03-04T12:01:02;99694.59;;;6.78;51.81
25610;BME280;13479;49.044;8.716;2023-03-04T12:04:15;99688.66;;;6.74;51.79
25610;BME280;13479;49.044;8.716;2023-03-04T12:06:52;99695.28;;;6.82;51.65
25610;BME280;13479;49.044;8.716;2023-03-04T12:09:48;99710.75;;;6.88;50.66
25610;BME280;13479;49.044;8.716;2023-03-04T12:15:27;99700.09;;;6.89;51.07
25610;BME280;13479;49.044;8.716;2023-03-04T12:20:32;99676.25;;;7.05;51.03
25610;BME280;13479;49.044;8.716;2023-03-04T12:29:08;99675.59;;;7.02;50.84
25610;BME280;13479;49.044;8.716;2023-03-04T12:31:40;99667.38;;;7.06;50.89
25610;BME280;13479;49.044;8.716;2023-03-04T12:40:05;99659.41;;;7.08;50.86
25610;BME280;13479;49.044;8.716;2023-03-04T12:45:38;99648.16;;;6.90;50.69
25610;BME280;13479;49.044;8.716;2023-03-04T12:56:58;99632.69;;;6.69;51.06
25610;BME280;13479;49.044;8.716;2023-03-04T12:59:25;99588.38;;;6.74;51.39
25610;BME280;13479;49.044;8.716;2023-03-04T13:04:56;99565.00;;;6.83;51.72
25610;BME280;13479;49.044;8.716;2023-03-04T13:13:31;99563.69;;;6.90;51.21
25610;BME280;13479;49.044;8.716;2023-03-04T13:16:04;99566.69;;;6.84;51.49
25610;BME280;13479;49.044;8.716;2023-03-04T13:18:33;99548.22;;;6.84;51.71
25610;BME280;13479;49.044;8.716;2023-03-04T13:23:36;99529.09;;;6.80;51.52
25610;BME280;13479;49.044;8.716;2023-03-04T13:28:30;99538.44;;;6.86;51.26
25610;BME280;13479;49.044;8.716;2023-03-04T13:41:20;99534.09;;;6.70;52.24
25610;BME280;13479;49.044;8.716;2023-03-04T13:43:46;99514.50;;;6.74;52.11
25610;BME280;13479;49.044;8.716;2023-03-04T13:46:28;99506.94;;;6.83;51.26
25610;BME280;13479;49.044;8.716;2023-03-04T14:04:19;99493.03;;;6.52;52.23
25610;BME280;13479;49.044;8.716;2023-03-04T14:06:49;99476.06;;;6.41;52.19
25610;BME280;13479;49.044;8.716;2023-03-04T14:09:18;99452.72;;;6.35;52.86
25610;BME280;13479;49.044;8.716;2023-03-04T14:11:48;99419.88;;;6.26;53.32
25610;BME280;13479;49.044;8.716;2023-03-04T14:14:18;99402.81;;;6.32;53.16
25610;BME280;13479;49.044;8.716;2023-03-04T14:16:48;99380.97;;;6.30;53.41
25610;BME280;13479;49.044;8.716;2023-03-04T14:19:17;99386.31;;;6.43;53.42
25610;BME280;13479;49.044;8.716;2023-03-04T14:21:44;99394.50;;;6.53;53.69
25610;BME280;13479;49.044;8.716;2023-03-04T14:24:12;99398.13;;;6.64;53.22
25610;BME280;13479;49.044;8.716;2023-03-04T14:26:38;99419.03;;;6.68;53.05
25610;BME280;13479;49.044;8.716;2023-03-04T14:31:47;99435.53;;;6.71;52.89
25610;BME280;13479;49.044;8.716;2023-03-04T14:34:21;99450.97;;;6.77;52.46
25610;BME280;13479;49.044;8.716;2023-03-04T14:36:47;99475.09;;;6.86;51.92
25610;BME280;13479;49.044;8.716;2023-03-04T14:39:15;99496.78;;;6.76;52.30
25610;BME280;13479;49.044;8.716;2023-03-04T14:41:43;99489.34;;;6.69;52.32
25610;BME280;13479;49.044;8.716;2023-03-04T14:44:28;99484.53;;;6.75;52.50
25610;BME280;13479;49.044;8.716;2023-03-04T14:47:29;99479.25;;;6.75;52.73
25610;BME280;13479;49.044;8.716;2023-03-04T14:49:50;99466.25;;;6.72;52.40
25610;BME280;13479;49.044;8.716;2023-03-04T14:55:02;99471.81;;;6.68;52.40
25610;BME280;13479;49.044;8.716;2023-03-04T14:57:34;99466.94;;;6.61;53.00
25610;BME280;13479;49.044;8.716;2023-03-04T15:02:59;99454.69;;;6.60;52.74
25610;BME280;13479;49.044;8.716;2023-03-04T15:05:28;99458.38;;;6.58;52.86
25610;BME280;13479;49.044;8.716;2023-03-04T15:07:59;99457.97;;;6.49;52.95
25610;BME280;13479;49.044;8.716;2023-03-04T15:10:36;99436.34;;;6.44;52.81
25610;BME280;13479;49.044;8.716;2023-03-04T15:13:05;99416.53;;;6.52;53.50
25610;BME280;13479;49.044;8.716;2023-03-04T15:15:44;99414.28;;;6.45;53.21
25610;BME280;13479;49.044;8.716;2023-03-04T15:18:27;99401.88;;;6.33;53.48
25610;BME280;13479;49.044;8.716;2023-03-04T15:20:54;99375.50;;;6.33;53.74
25610;BME280;13479;49.044;8.716;2023-03-04T15:23:20;99373.81;;;6.32;53.48
25610;BME280;13479;49.044;8.716;2023-03-04T15:25:50;99354.88;;;6.25;53.75
25610;BME280;13479;49.044;8.716;2023-03-04T15:28:17;99346.78;;;6.28;54.53
25610;BME280;13479;49.044;8.716;2023-03-04T15:30:43;99341.59;;;6.27;53.88
25610;BME280;13479;49.044;8.716;2023-03-04T15:33:10;99332.09;;;6.24;54.67
25610;BME280;13479;49.044;8.716;2023-03-04T15:35:36;99337.38;;;6.24;54.41
25610;BME280;13479;49.044;8.716;2023-03-04T15:38:04;99335.72;;;6.36;53.89
25610;BME280;13479;49.044;8.716;2023-03-04T15:40:33;99352.13;;;6.41;53.74
25610;BME280;13479;49.044;8.716;2023-03-04T15:43:01;99351.19;;;6.42;54.14
25610;BME280;13479;49.044;8.716;2023-03-04T15:45:35;99363.44;;;6.43;53.60
25610;BME280;13479;49.044;8.716;2023-03-04T15:48:03;99359.47;;;6.36;53.88
25610;BME280;13479;49.044;8.716;2023-03-04T15:50:33;99361.91;;;6.39;53.90
25610;BME280;13479;49.044;8.716;2023-03-04T15:53:01;99364.94;;;6.33;54.09
25610;BME280;13479;49.044;8.716;2023-03-04T15:55:27;99357.69;;;6.37;54.17
25610;BME280;13479;49.044;8.716;2023-03-04T15:57:54;99368.53;;;6.32;53.81
25610;BME280;13479;49.044;8.716;2023-03-04T16:00:20;99388.47;;;6.36;53.79
25610;BME280;13479;49.044;8.716;2023-03-04T16:02:46;99388.31;;;6.25;53.71
25610;BME280;13479;49.044;8.716;2023-03-04T16:05:12;99392.84;;;6.23;53.90
25610;BME280;13479;49.044;8.716;2023-03-04T16:07:39;99386.63;;;6.24;54.11
25610;BME280;13479;49.044;8.716;2023-03-04T16:10:11;99379.06;;;6.32;53.80
25610;BME280;13479;49.044;8.716;2023-03-04T16:12:39;99405.44;;;6.17;53.27
25610;BME280;13479;49.044;8.716;2023-03-04T16:15:16;99400.66;;;6.10;53.71
25610;BME280;13479;49.044;8.716;2023-03-04T16:17:42;99377.13;;;6.07;53.71
25610;BME280;13479;49.044;8.716;2023-03-04T16:20:10;99358.75;;;6.05;54.74
25610;BME280;13479;49.044;8.716;2023-03-04T16:22:36;99344.63;;;6.06;54.63
25610;BME280;13479;49.044;8.716;2023-03-04T16:25:01;99321.66;;;6.08;54.65
25610;BME280;13479;49.044;8.716;2023-03-04T16:27:27;99327.06;;;6.07;54.30
25610;BME280;13479;49.044;8.716;2023-03-04T16:29:52;99323.38;;;6.09;54.44
25610;BME280;13479;49.044;8.716;2023-03-04T16:32:17;99324.13;;;6.11;54.93
25610;BME280;13479;49.044;8.716;2023-03-04T16:34:43;99330.34;;;6.10;54.44
25610;BME280;13479;49.044;8.716;2023-03-04T16:37:14;99341.53;;;6.14;54.23
25610;BME280;13479;49.044;8.716;2023-03-04T16:39:42;99336.72;;;6.06;54.67
25610;BME280;13479;49.044;8.716;2023-03-04T16:42:14;99335.91;;;6.06;54.39
25610;BME280;13479;49.044;8.716;2023-03-04T16:44:41;99334.28;;;6.03;54.66
25610;BME280;13479;49.044;8.716;2023-03-04T16:47:06;99332.84;;;5.97;54.54
25610;BME280;13479;49.044;8.716;2023-03-04T16:49:32;99324.28;;;5.94;54.34
25610;BME280;13479;49.044;8.716;2023-03-04T16:51:57;99327.31;;;5.87;55.12
25610;BME280;13479;49.044;8.716;2023-03-04T16:54:27;99317.88;;;5.83;54.77
25610;BME280;13479;49.044;8.716;2023-03-04T16:56:55;99309.44;;;5.78;55.46
25610;BME280;13479;49.044;8.716;2023-03-04T16:59:20;99306.22;;;5.73;55.96
25610;BME280;13479;49.044;8.716;2023-03-04T17:01:45;99294.66;;;5.76;55.52
25610;BME280;13479;49.044;8.716;2023-03-04T17:04:11;99303.41;;;5.76;55.51
25610;BME280;13479;49.044;8.716;2023-03-04T17:06:36;99305.00;;;5.79;55.12
25610;BME280;13479;49.044;8.716;2023-03-04T17:09:05;99304.34;;;5.75;55.58
25610;BME280;13479;49.044;8.716;2023-03-04T17:11:30;99305.47;;;5.71;55.66
25610;BME280;13479;49.044;8.716;2023-03-04T17:13:55;99297.97;;;5.65;55.43
25610;BME280;13479;49.044;8.716;2023-03-04T17:16:21;99298.53;;;5.55;56.19
25610;BME280;13479;49.044;8.716;2023-03-04T17:18:47;99305.84;;;5.50;55.39
25610;BME280;13479;49.044;8.716;2023-03-04T17:21:16;99307.06;;;5.45;55.53
25610;BME280;13479;49.044;8.716;2023-03-04T17:23:42;99300.28;;;5.40;56.06
25610;BME280;13479;49.044;8.716;2023-03-04T17:26:07;99285.91;;;5.32;56.35
25610;BME280;13479;49.044;8.716;2023-03-04T17:28:34;99289.56;;;5.29;56.07
25610;BME280;13479;49.044;8.716;2023-03-04T17:30:59;99286.09;;;5.29;56.71
25610;BME280;13479;49.044;8.716;2023-03-04T17:33:24;99295.09;;;5.24;57.58
25610;BME280;13479;49.044;8.716;2023-03-04T17:35:50;99287.94;;;5.26;56.82
25610;BME280;13479;49.044;8.716;2023-03-04T17:38:15;99294.91;;;5.28;57.27
25610;BME280;13479;49.044;8.716;2023-03-04T17:40:41;99301.78;;;5.30;57.21
25610;BME280;13479;49.044;8.716;2023-03-04T17:43:07;99301.50;;;5.35;57.64
25610;BME280;13479;49.044;8.716;2023-03-04T17:45:42;99315.53;;;5.35;57.03
25610;BME280;13479;49.044;8.716;2023-03-04T17:48:09;99303.88;;;5.39;57.39
25610;BME280;13479;49.044;8.716;2023-03-04T17:50:50;99309.16;;;5.39;57.05
25610;BME280;13479;49.044;8.716;2023-03-04T17:53:16;99313.94;;;5.33;56.99
25610;BME280;13479;49.044;8.716;2023-03-04T17:55:51;99308.28;;;5.39;56.72
25610;BME280;13479;49.044;8.716;2023-03-04T17:58:18;99316.28;;;5.37;56.80
25610;BME280;13479;49.044;8.716;2023-03-04T18:00:43;99327.81;;;5.35;56.69
25610;BME280;13479;49.044;8.716;2023-03-04T18:03:12;99320.91;;;5.34;56.70
25610;BME280;13479;49.044;8.716;2023-03-04T18:05:38;99312.41;;;5.29;56.83
25610;BME280;13479;49.044;8.716;2023-03-04T18:08:04;99309.38;;;5.20;56.99
25610;BME280;13479;49.044;8.716;2023-03-04T18:10:29;99310.44;;;5.18;56.47
25610;BME280;13479;49.044;8.716;2023-03-04T18:12:54;99305.91;;;5.20;57.21
25610;BME280;13479;49.044;8.716;2023-03-04T18:15:20;99294.53;;;5.19;57.39
25610;BME280;13479;49.044;8.716;2023-03-04T18:17:45;99299.69;;;5.21;57.29
25610;BME280;13479;49.044;8.716;2023-03-04T18:20:11;99299.53;;;5.24;57.81
25610;BME280;13479;49.044;8.716;2023-03-04T18:22:37;99302.25;;;5.22;57.66
25610;BME280;13479;49.044;8.716;2023-03-04T18:25:03;99302.25;;;5.22;57.04
25610;BME280;13479;49.044;8.716;2023-03-04T18:27:29;99316.25;;;5.23;57.20
25610;BME280;13479;49.044;8.716;2023-03-04T18:29:54;99310.88;;;5.24;56.82
25610;BME280;13479;49.044;8.716;2023-03-04T18:32:20;99327.09;;;5.33;56.20
25610;BME280;13479;49.044;8.716;2023-03-04T18:34:46;99337.13;;;5.26;56.29
25610;BME280;13479;49.044;8.716;2023-03-04T18:37:11;99340.69;;;5.25;56.88
25610;BME280;13479;49.044;8.716;2023-03-04T18:39:36;99347.28;;;5.32;56.38
25610;BME280;13479;49.044;8.716;2023-03-04T18:42:02;99345.31;;;5.21;56.56
25610;BME280;13479;49.044;8.716;2023-03-04T18:44:27;99344.53;;;5.19;56.78
25610;BME280;13479;49.044;8.716;2023-03-04T18:46:55;99335.72;;;5.20;57.14
25610;BME280;13479;49.044;8.716;2023-03-04T18:49:21;99328.59;;;5.22;56.94
25610;BME280;13479;49.044;8.716;2023-03-04T18:51:47;99324.16;;;5.23;57.24
25610;BME280;13479;49.044;8.716;2023-03-04T18:54:12;99321.13;;;5.15;56.81
25610;BME280;13479;49.044;8.716;2023-03-04T18:56:41;99312.09;;;5.19;56.81
25610;BME280;13479;49.044;8.716;2023-03-04T18:59:26;99299.91;;;5.18;56.83
25610;BME280;13479;49.044;8.716;2023-03-04T19:01:57;99300.91;;;5.15;57.27
25610;BME280;13479;49.044;8.716;2023-03-04T19:04:26;99302.44;;;5.19;56.75
25610;BME280;13479;49.044;8.716;2023-03-04T19:06:52;99292.66;;;5.21;57.10
25610;BME280;13479;49.044;8.716;2023-03-04T19:09:17;99299.34;;;5.27;56.60
25610;BME280;13479;49.044;8.716;2023-03-04T19:11:43;99318.44;;;5.31;56.88
25610;BME280;13479;49.044;8.716;2023-03-04T19:14:08;99333.63;;;5.25;57.06
25610;BME280;13479;49.044;8.716;2023-03-04T19:16:35;99333.84;;;5.22;56.44
25610;BME280;13479;49.044;8.716;2023-03-04T19:19:00;99342.84;;;5.18;56.70
25610;BME280;13479;49.044;8.716;2023-03-04T19:21:26;99348.13;;;5.18;56.89
25610;BME280;13479;49.044;8.716;2023-03-04T19:23:51;99349.63;;;5.22;57.00
25610;BME280;13479;49.044;8.716;2023-03-04T19:26:16;99345.47;;;5.18;56.53
25610;BME280;13479;49.044;8.716;2023-03-04T19:28:41;99341.16;;;5.17;56.61
25610;BME280;13479;49.044;8.716;2023-03-04T19:31:09;99339.44;;;5.16;57.04
25610;BME280;13479;49.044;8.716;2023-03-04T19:33:35;99319.34;;;5.15;56.84
25610;BME280;13479;49.044;8.716;2023-03-04T19:36:02;99303.53;;;5.15;56.72
25610;BME280;13479;49.044;8.716;2023-03-04T19:38:29;99305.22;;;5.16;56.89
25610;BME280;13479;49.044;8.716;2023-03-04T19:40:54;99288.41;;;5.19;57.43
25610;BME280;13479;49.044;8.716;2023-03-04T19:43:20;99284.34;;;5.13;57.36
25610;BME280;13479;49.044;8.716;2023-03-04T19:45:55;99289.28;;;5.19;57.11
25610;BME280;13479;49.044;8.716;2023-03-04T19:48:21;99284.94;;;5.18;57.28
25610;BME280;13479;49.044;8.716;2023-03-04T19:50:47;99289.09;;;5.37;56.77
25610;BME280;13479;49.044;8.716;2023-03-04T19:53:13;99311.84;;;5.38;56.60
25610;BME280;13479;49.044;8.716;2023-03-04T19:55:43;99323.09;;;5.25;56.91
25610;BME280;13479;49.044;8.716;2023-03-04T19:58:09;99318.06;;;5.22;56.69